createdAt,value
2018-12-29T00:00:20.889Z,21.33
2018-12-29T00:02:50.798Z,19.53
2018-12-29T00:05:20.445Z,19.10
2018-12-29T00:07:50.332Z,19.97
2018-12-29T00:10:20.350Z,20.90
2018-12-29T00:12:50.095Z,22.53
2018-12-29T00:15:19.742Z,21.60
2018-12-29T00:17:49.671Z,19.80
2018-12-29T00:20:19.598Z,19.07
2018-12-29T00:22:50.118Z,19.40
2018-12-29T00:25:20.133Z,20.67
2018-12-29T00:27:49.904Z,21.90
2018-12-29T00:30:19.855Z,20.43
2018-12-29T00:32:49.506Z,17.93
2018-12-29T00:35:19.113Z,18.53
2018-12-29T00:37:48.728Z,21.27
2018-12-29T00:40:18.703Z,20.83
2018-12-29T00:42:48.645Z,19.70
2018-12-29T00:45:18.289Z,18.13
2018-12-29T00:47:47.917Z,19.07
2018-12-29T00:50:17.705Z,19.57
2018-12-29T00:52:47.254Z,20.07
2018-12-29T00:55:16.817Z,18.13
2018-12-29T00:57:46.663Z,20.10
2018-12-29T01:00:16.220Z,17.77
2018-12-29T01:02:46.077Z,20.37
2018-12-29T01:05:15.648Z,19.87
2018-12-29T01:07:45.210Z,20.67
2018-12-29T01:10:14.881Z,17.07
2018-12-29T01:12:44.533Z,18.07
2018-12-29T01:15:14.548Z,18.70
2018-12-29T01:17:44.759Z,21.93
2018-12-29T01:20:14.375Z,18.57
2018-12-29T01:22:44.606Z,22.33
2018-12-29T01:25:14.814Z,19.87
2018-12-29T01:27:47.456Z,19.53
2018-12-29T01:30:17.102Z,20.77
2018-12-29T01:32:47.415Z,20.43
2018-12-29T01:35:17.036Z,17.40
2018-12-29T01:37:47.349Z,16.67
2018-12-29T01:40:17.159Z,20.60
2018-12-29T01:42:47.071Z,18.67
2018-12-29T01:45:17.609Z,17.10
2018-12-29T01:47:48.197Z,19.60
2018-12-29T01:50:18.447Z,17.63
2018-12-29T01:52:48.075Z,20.27
2018-12-29T01:55:18.993Z,18.13
2018-12-29T01:57:48.633Z,17.53
2018-12-29T02:00:19.185Z,16.67
2018-12-29T02:02:49.545Z,18.77
2018-12-29T02:05:19.913Z,17.30
2018-12-29T02:07:50.201Z,15.40
2018-12-29T02:10:19.840Z,18.40
2018-12-29T02:12:50.079Z,15.03
2018-12-29T02:15:24.729Z,14.67
2018-12-29T02:17:52.417Z,18.70
2018-12-29T02:20:22.753Z,17.77
2018-12-29T02:22:52.704Z,19.70
2018-12-29T02:25:22.674Z,17.30
2018-12-29T02:27:52.653Z,16.73
2018-12-29T02:30:22.311Z,17.40
2018-12-29T02:32:51.942Z,17.03
2018-12-29T02:35:22.259Z,16.10
2018-12-29T02:37:52.162Z,17.10
2018-12-29T02:40:21.834Z,16.50
2018-12-29T02:42:51.554Z,17.53
2018-12-29T02:45:21.524Z,15.60
2018-12-29T02:47:51.370Z,16.07
2018-12-29T02:50:21.012Z,16.27
2018-12-29T02:52:50.894Z,16.87
2018-12-29T02:55:20.482Z,16.27
2018-12-29T02:57:50.038Z,18.40
2018-12-29T03:00:19.910Z,16.13
2018-12-29T03:02:49.469Z,15.33
2018-12-29T03:05:19.050Z,14.47
2018-12-29T03:07:48.861Z,15.47
2018-12-29T03:10:18.749Z,14.97
2018-12-29T03:12:48.586Z,14.87
2018-12-29T03:15:18.170Z,16.13
2018-12-29T03:17:47.720Z,14.03
2018-12-29T03:20:17.914Z,15.90
2018-12-29T03:22:48.073Z,15.57
2018-12-29T03:25:18.672Z,17.13
2018-12-29T03:27:48.225Z,16.70
2018-12-29T03:30:17.790Z,16.10
2018-12-29T03:32:47.343Z,15.43
2018-12-29T03:35:17.300Z,13.30
2018-12-29T03:37:47.138Z,14.73
2018-12-29T03:40:16.978Z,16.63
2018-12-29T03:42:47.395Z,14.77
2018-12-29T03:45:17.277Z,14.77
2018-12-29T03:47:47.076Z,14.17
2018-12-29T03:50:16.634Z,14.57
2018-12-29T03:52:46.200Z,14.13
2018-12-29T03:55:16.131Z,17.47
2018-12-29T03:57:45.709Z,14.20
2018-12-29T04:00:15.627Z,14.90
2018-12-29T04:02:45.445Z,14.90
2018-12-29T04:05:14.985Z,14.73
2018-12-29T04:07:44.568Z,15.17
2018-12-29T04:10:16.684Z,12.50
2018-12-29T04:12:50.373Z,13.57
2018-12-29T04:15:19.950Z,14.77
2018-12-29T04:17:50.146Z,13.83
2018-12-29T04:20:19.730Z,14.43
2018-12-29T04:22:49.373Z,14.00
2018-12-29T04:25:23.172Z,13.60
2018-12-29T04:27:52.986Z,13.77
2018-12-29T04:30:22.793Z,12.93
2018-12-29T04:32:52.360Z,15.20
2018-12-29T04:35:21.925Z,14.63
2018-12-29T04:37:51.816Z,14.50
2018-12-29T04:40:22.045Z,12.67
2018-12-29T04:42:51.857Z,13.73
2018-12-29T04:45:22.325Z,12.67
2018-12-29T04:47:52.717Z,13.10
2018-12-29T04:50:22.935Z,14.10
2018-12-29T04:52:52.736Z,14.00
2018-12-29T04:55:22.369Z,12.27
2018-12-29T04:57:52.237Z,13.40
2018-12-29T05:00:21.784Z,13.73
2018-12-29T05:02:51.564Z,13.77
2018-12-29T05:05:21.389Z,13.20
2018-12-29T05:07:50.960Z,12.17
2018-12-29T05:10:20.816Z,13.00
2018-12-29T05:12:50.620Z,11.90
2018-12-29T05:15:20.840Z,12.90
2018-12-29T05:17:50.656Z,13.13
2018-12-29T05:20:20.553Z,12.83
2018-12-29T05:22:50.785Z,12.57
2018-12-29T05:25:20.340Z,12.33
2018-12-29T05:27:49.896Z,14.20
2018-12-29T05:30:19.713Z,13.80
2018-12-29T05:32:49.536Z,13.03
2018-12-29T05:35:19.085Z,12.30
2018-12-29T05:37:48.645Z,12.90
2018-12-29T05:40:18.528Z,12.83
2018-12-29T05:42:48.665Z,10.77
2018-12-29T05:45:18.897Z,13.73
2018-12-29T05:47:48.466Z,12.53
2018-12-29T05:50:18.726Z,13.20
2018-12-29T05:52:48.533Z,11.90
2018-12-29T05:55:18.347Z,13.17
2018-12-29T05:57:48.492Z,12.07
2018-12-29T06:00:18.045Z,12.80
2018-12-29T06:02:47.600Z,12.77
2018-12-29T06:05:17.164Z,13.10
2018-12-29T06:07:47.005Z,12.63
2018-12-29T06:10:16.566Z,12.90
2018-12-29T06:12:46.120Z,12.30
2018-12-29T06:15:16.333Z,13.93
2018-12-29T06:17:45.905Z,13.20
2018-12-29T06:20:15.745Z,12.00
2018-12-29T06:22:45.314Z,10.87
2018-12-29T06:25:15.146Z,14.23
2018-12-29T06:27:44.696Z,13.30
2018-12-29T06:30:14.584Z,12.87
2018-12-29T06:32:44.148Z,12.90
2018-12-29T06:35:13.764Z,11.93
2018-12-29T06:37:43.613Z,12.23
2018-12-29T06:40:13.420Z,12.47
2018-12-29T06:42:42.973Z,13.30
2018-12-29T06:45:12.947Z,14.37
2018-12-29T06:47:42.501Z,11.93
2018-12-29T06:50:12.168Z,12.57
2018-12-29T06:52:42.056Z,12.07
2018-12-29T06:55:12.192Z,13.90
2018-12-29T06:57:41.803Z,13.73
2018-12-29T07:00:11.420Z,12.53
2018-12-29T07:02:54.428Z,11.57
2018-12-29T07:05:24.554Z,12.43
2018-12-29T07:07:54.357Z,14.90
2018-12-29T07:10:23.933Z,13.37
2018-12-29T07:12:54.085Z,11.97
2018-12-29T07:15:23.637Z,13.57
2018-12-29T07:17:53.480Z,13.73
2018-12-29T07:20:23.420Z,13.47
2018-12-29T07:22:56.228Z,13.90
2018-12-29T07:25:26.120Z,12.30
2018-12-29T07:27:55.928Z,13.70
2018-12-29T07:30:26.385Z,13.27
2018-12-29T07:32:56.846Z,12.77
2018-12-29T07:35:26.697Z,14.63
2018-12-29T07:37:56.818Z,14.07
2018-12-29T07:40:26.367Z,13.23
2018-12-29T07:42:56.233Z,13.67
2018-12-29T07:45:26.045Z,13.83
2018-12-29T07:47:56.524Z,14.17
2018-12-29T07:50:26.078Z,15.03
2018-12-29T07:52:55.957Z,13.57
2018-12-29T07:55:25.529Z,14.03
2018-12-29T07:57:55.417Z,15.37
2018-12-29T08:00:25.866Z,14.67
2018-12-29T08:02:55.989Z,15.03
2018-12-29T08:05:25.868Z,15.67
2018-12-29T08:07:55.993Z,15.60
2018-12-29T08:10:25.559Z,14.10
2018-12-29T08:12:55.489Z,15.63
2018-12-29T08:15:25.329Z,13.83
2018-12-29T08:17:54.885Z,12.70
2018-12-29T08:20:24.716Z,14.83
2018-12-29T08:22:54.309Z,13.40
2018-12-29T08:25:24.177Z,12.97
2018-12-29T08:27:53.982Z,13.03
2018-12-29T08:30:23.781Z,12.57
2018-12-29T08:32:54.043Z,13.83
2018-12-29T08:35:23.921Z,14.10
2018-12-29T08:37:53.492Z,13.43
2018-12-29T08:40:23.640Z,13.97
2018-12-29T08:42:53.452Z,13.13
2018-12-29T08:45:23.016Z,11.63
2018-12-29T08:47:52.881Z,12.20
2018-12-29T08:50:22.501Z,14.20
2018-12-29T08:52:52.636Z,12.57
2018-12-29T08:55:22.520Z,12.87
2018-12-29T08:58:01.548Z,12.93
2018-12-29T09:00:31.349Z,13.87
2018-12-29T09:03:01.913Z,16.47
2018-12-29T09:05:31.529Z,14.50
2018-12-29T09:08:01.725Z,14.10
2018-12-29T09:10:31.909Z,14.93
2018-12-29T09:13:02.061Z,14.70
2018-12-29T09:15:39.266Z,14.43
2018-12-29T09:18:13.341Z,15.23
2018-12-29T09:20:43.187Z,13.73
2018-12-29T09:23:22.755Z,16.18
2018-12-29T09:25:52.849Z,14.37
2018-12-29T09:28:23.117Z,15.37
2018-12-29T09:30:53.578Z,15.43
2018-12-29T09:33:31.244Z,14.20
2018-12-29T09:36:01.386Z,15.50
2018-12-29T09:38:31.522Z,14.10
2018-12-29T09:41:01.371Z,14.97
2018-12-29T09:43:31.377Z,16.17
2018-12-29T09:46:01.240Z,14.73
2018-12-29T09:48:31.077Z,14.87
2018-12-29T09:51:00.982Z,15.17
2018-12-29T09:53:30.997Z,14.43
2018-12-29T09:56:00.540Z,12.30
2018-12-29T09:58:30.413Z,15.50
2018-12-29T10:00:59.976Z,13.13
2018-12-29T10:03:32.765Z,14.87
2018-12-29T10:06:02.926Z,14.50
2018-12-29T10:08:32.716Z,14.30
2018-12-29T10:11:02.302Z,14.03
2018-12-29T10:13:31.860Z,14.30
2018-12-29T10:16:03.804Z,13.83
2018-12-29T10:18:34.045Z,15.13
2018-12-29T10:21:03.949Z,12.40
2018-12-29T10:23:33.845Z,16.97
2018-12-29T10:26:03.799Z,14.33
2018-12-29T10:28:33.396Z,15.67
2018-12-29T10:31:02.973Z,15.27
2018-12-29T10:33:32.873Z,13.63
2018-12-29T10:36:03.768Z,15.83
2018-12-29T10:38:33.561Z,13.60
2018-12-29T10:41:03.458Z,14.90
2018-12-29T10:43:33.532Z,13.57
2018-12-29T10:46:03.607Z,14.80
2018-12-29T10:48:33.947Z,14.43
2018-12-29T10:51:04.109Z,15.00
2018-12-29T10:53:33.684Z,14.40
2018-12-29T10:56:03.324Z,15.27
2018-12-29T10:58:33.212Z,13.77
2018-12-29T11:01:03.185Z,14.10
2018-12-29T11:03:32.772Z,14.40
2018-12-29T11:06:02.357Z,14.43
2018-12-29T11:08:32.991Z,16.17
2018-12-29T11:11:03.258Z,14.60
2018-12-29T11:13:37.232Z,19.03
2018-12-29T11:16:08.408Z,14.50
2018-12-29T11:18:38.320Z,13.63
2018-12-29T11:21:08.548Z,17.20
2018-12-29T11:23:38.689Z,15.87
2018-12-29T11:26:08.261Z,16.83
2018-12-29T11:28:38.701Z,13.30
2018-12-29T11:31:08.264Z,16.90
2018-12-29T11:33:37.841Z,14.50
2018-12-29T11:36:07.480Z,14.37
2018-12-29T11:38:37.395Z,14.07
2018-12-29T11:41:07.253Z,16.60
2018-12-29T11:43:37.344Z,16.73
2018-12-29T11:46:07.008Z,14.63
2018-12-29T11:48:36.565Z,15.10
2018-12-29T11:51:06.872Z,16.50
2018-12-29T11:53:36.720Z,14.83
2018-12-29T11:56:06.509Z,12.83
2018-12-29T11:58:36.346Z,14.00
2018-12-29T12:01:06.228Z,15.27
2018-12-29T12:03:36.068Z,17.07
2018-12-29T12:06:05.984Z,15.43
2018-12-29T12:08:35.537Z,13.67
2018-12-29T12:11:05.408Z,14.10
2018-12-29T12:13:35.329Z,15.40
2018-12-29T12:16:05.161Z,13.63
2018-12-29T12:18:34.728Z,18.73
2018-12-29T12:21:04.304Z,13.67
2018-12-29T12:23:33.880Z,16.63
2018-12-29T12:26:03.429Z,13.60
2018-12-29T12:28:33.102Z,13.33
2018-12-29T12:31:03.206Z,16.70
2018-12-29T12:33:32.764Z,13.73
2018-12-29T12:36:17.866Z,14.47
2018-12-29T12:38:48.077Z,15.03
2018-12-29T12:41:17.880Z,15.60
2018-12-29T12:43:47.803Z,16.07
2018-12-29T12:46:18.229Z,13.53
2018-12-29T12:48:48.181Z,16.33
2018-12-29T12:51:17.745Z,16.17
2018-12-29T12:53:47.876Z,13.83
2018-12-29T12:56:18.029Z,14.73
2018-12-29T12:58:48.536Z,15.90
2018-12-29T13:01:18.948Z,14.27
2018-12-29T13:03:48.860Z,13.73
2018-12-29T13:06:18.780Z,19.57
2018-12-29T13:08:49.109Z,13.57
2018-12-29T13:11:18.683Z,18.07
2018-12-29T13:13:48.831Z,16.93
2018-12-29T13:16:18.791Z,17.53
2018-12-29T13:18:48.588Z,14.90
2018-12-29T13:21:18.802Z,15.47
2018-12-29T13:23:49.092Z,17.03
2018-12-29T13:26:18.640Z,18.13
2018-12-29T13:28:48.725Z,18.83
2018-12-29T13:31:18.638Z,17.00
2018-12-29T13:34:00.405Z,19.67
2018-12-29T13:36:30.249Z,15.83
2018-12-29T13:39:00.070Z,15.27
2018-12-29T13:41:29.965Z,15.47
2018-12-29T13:43:59.782Z,13.60
2018-12-29T13:46:35.924Z,16.03
2018-12-29T13:49:05.833Z,16.63
2018-12-29T13:51:42.134Z,14.93
2018-12-29T13:54:13.160Z,16.70
2018-12-29T13:56:43.361Z,18.23
2018-12-29T13:59:13.503Z,14.97
2018-12-29T14:01:44.032Z,13.33
2018-12-29T14:04:28.794Z,18.67
2018-12-29T14:06:59.369Z,15.00
2018-12-29T14:09:29.238Z,17.10
2018-12-29T14:11:59.400Z,17.37
2018-12-29T14:14:29.478Z,14.77
2018-12-29T14:16:59.758Z,15.20
2018-12-29T14:19:29.617Z,16.47
2018-12-29T14:21:59.477Z,16.20
2018-12-29T14:24:29.369Z,18.83
2018-12-29T14:26:58.925Z,17.47
2018-12-29T14:29:29.165Z,17.20
2018-12-29T14:31:59.079Z,16.83
2018-12-29T14:34:28.881Z,17.07
2018-12-29T14:36:58.961Z,17.73
2018-12-29T14:39:28.845Z,17.07
2018-12-29T14:41:59.051Z,17.83
2018-12-29T14:44:28.702Z,18.40
2018-12-29T14:46:58.570Z,17.53
2018-12-29T14:49:36.570Z,18.53
2018-12-29T14:52:06.132Z,16.87
2018-12-29T14:54:35.929Z,16.63
2018-12-29T14:57:06.029Z,17.20
2018-12-29T14:59:35.612Z,16.73
2018-12-29T15:02:05.271Z,17.43
2018-12-29T15:04:35.140Z,15.90
2018-12-29T15:07:05.706Z,16.47
2018-12-29T15:09:35.534Z,15.40
2018-12-29T15:12:05.189Z,17.07
2018-12-29T15:14:35.168Z,14.67
2018-12-29T15:17:05.453Z,14.70
2018-12-29T15:19:35.329Z,14.67
2018-12-29T15:22:05.152Z,12.83
2018-12-29T15:24:35.168Z,13.70
2018-12-29T15:27:05.218Z,13.73
2018-12-29T15:29:35.352Z,13.10
2018-12-29T15:32:05.748Z,17.37
2018-12-29T15:34:41.884Z,14.00
2018-12-29T15:37:11.976Z,13.20
2018-12-29T15:39:42.236Z,13.87
2018-12-29T15:42:12.148Z,13.83
2018-12-29T15:44:41.974Z,14.27
2018-12-29T15:47:12.584Z,14.87
2018-12-29T15:49:42.159Z,14.10
2018-12-29T15:52:12.007Z,12.80
2018-12-29T15:54:42.489Z,14.97
2018-12-29T15:57:12.125Z,12.73
2018-12-29T15:59:42.049Z,15.00
2018-12-29T16:02:11.952Z,13.37
2018-12-29T16:04:42.209Z,11.93
2018-12-29T16:07:12.097Z,12.03
2018-12-29T16:09:42.333Z,13.40
2018-12-29T16:12:12.212Z,15.00
2018-12-29T16:14:42.368Z,11.27
2018-12-29T16:17:14.645Z,14.13
2018-12-29T16:19:44.853Z,15.90
2018-12-29T16:22:15.300Z,13.10
2018-12-29T16:24:45.250Z,12.07
2018-12-29T16:27:15.547Z,12.60
2018-12-29T16:29:45.268Z,13.77
2018-12-29T16:32:15.550Z,12.73
2018-12-29T16:34:45.521Z,15.30
2018-12-29T16:37:15.580Z,13.43
2018-12-29T16:39:45.493Z,13.73
2018-12-29T16:42:15.720Z,14.27
2018-12-29T16:44:45.545Z,13.23
2018-12-29T16:47:15.473Z,15.77
2018-12-29T16:49:45.105Z,14.40
2018-12-29T16:52:15.101Z,15.27
2018-12-29T16:54:44.997Z,14.63
2018-12-29T16:57:14.785Z,14.73
2018-12-29T16:59:45.029Z,14.50
2018-12-29T17:02:15.654Z,14.83
2018-12-29T17:04:45.567Z,17.20
2018-12-29T17:07:15.837Z,16.10
2018-12-29T17:09:45.916Z,14.60
2018-12-29T17:12:16.441Z,12.40
2018-12-29T17:14:46.029Z,14.33
2018-12-29T17:17:15.965Z,12.87
2018-12-29T17:19:46.273Z,16.10
2018-12-29T17:22:16.652Z,17.60
2018-12-29T17:24:46.573Z,16.43
2018-12-29T17:27:22.490Z,15.83
2018-12-29T17:29:52.321Z,17.57
2018-12-29T17:32:22.608Z,13.13
2018-12-29T17:34:52.167Z,14.07
2018-12-29T17:37:21.992Z,13.30
2018-12-29T17:39:51.599Z,13.40
2018-12-29T17:42:21.560Z,16.03
2018-12-29T17:44:51.477Z,14.03
2018-12-29T17:47:21.377Z,12.90
2018-12-29T17:49:51.601Z,12.13
2018-12-29T17:52:21.471Z,10.80
2018-12-29T17:54:51.632Z,13.20
2018-12-29T17:57:27.534Z,11.47
2018-12-29T17:59:58.049Z,14.00
2018-12-29T18:02:28.137Z,12.07
2018-12-29T18:04:57.953Z,12.80
2018-12-29T18:07:27.810Z,13.13
2018-12-29T18:09:57.758Z,9.83
2018-12-29T18:12:27.900Z,11.73
2018-12-29T18:14:58.133Z,13.00
2018-12-29T18:17:28.245Z,12.40
2018-12-29T18:19:58.618Z,9.90
2018-12-29T18:22:28.529Z,9.73
2018-12-29T18:25:00.656Z,10.83
2018-12-29T18:27:30.835Z,10.67
2018-12-29T18:30:00.509Z,11.00
2018-12-29T18:32:30.319Z,11.17
2018-12-29T18:35:00.397Z,14.17
2018-12-29T18:37:30.314Z,15.23
2018-12-29T18:40:00.171Z,14.10
2018-12-29T18:42:30.040Z,15.93
2018-12-29T18:44:59.956Z,13.83
2018-12-29T18:47:30.629Z,15.13
2018-12-29T18:50:00.514Z,14.10
2018-12-29T18:52:30.167Z,14.93
2018-12-29T18:55:00.390Z,14.30
2018-12-29T18:57:30.876Z,15.03
2018-12-29T19:00:00.832Z,15.20
2018-12-29T19:02:30.789Z,13.97
2018-12-29T19:05:00.369Z,14.63
2018-12-29T19:07:30.197Z,14.70
2018-12-29T19:10:00.229Z,13.80
2018-12-29T19:12:29.892Z,13.77
2018-12-29T19:15:00.486Z,16.13
2018-12-29T19:17:30.893Z,12.83
2018-12-29T19:20:01.096Z,13.70
2018-12-29T19:22:30.750Z,14.93
2018-12-29T19:25:00.771Z,10.90
2018-12-29T19:27:30.459Z,13.33
2018-12-29T19:30:05.372Z,13.30
2018-12-29T19:32:35.068Z,14.93
2018-12-29T19:35:05.275Z,16.20
2018-12-29T19:37:35.942Z,16.50
2018-12-29T19:40:06.316Z,11.97
2018-12-29T19:42:35.917Z,13.97
2018-12-29T19:45:05.784Z,14.47
2018-12-29T19:47:35.333Z,13.27
2018-12-29T19:50:05.944Z,11.37
2018-12-29T19:52:35.741Z,14.00
2018-12-29T19:55:05.467Z,14.07
2018-12-29T19:57:35.801Z,13.73
2018-12-29T20:00:07.094Z,14.50
2018-12-29T20:02:37.157Z,13.10
2018-12-29T20:05:06.968Z,11.37
2018-12-29T20:07:36.864Z,11.73
2018-12-29T20:10:07.117Z,12.80
2018-12-29T20:12:37.108Z,11.60
2018-12-29T20:15:07.244Z,12.03
2018-12-29T20:17:37.406Z,12.90
2018-12-29T20:20:07.874Z,10.50
2018-12-29T20:22:37.893Z,11.60
2018-12-29T20:25:07.629Z,14.00
2018-12-29T20:27:37.553Z,13.27
2018-12-29T20:30:08.889Z,16.63
2018-12-29T20:32:38.773Z,14.17
2018-12-29T20:35:08.985Z,14.23
2018-12-29T20:37:39.109Z,13.07
2018-12-29T20:40:09.029Z,13.23
2018-12-29T20:42:38.949Z,11.30
2018-12-29T20:45:08.754Z,12.67
2018-12-29T20:47:38.629Z,11.57
2018-12-29T20:50:10.004Z,9.73
2018-12-29T20:52:40.853Z,9.57
2018-12-29T20:55:10.458Z,11.67
2018-12-29T20:57:40.674Z,14.30
2018-12-29T21:00:11.106Z,15.77
2018-12-29T21:02:41.017Z,11.03
2018-12-29T21:05:11.460Z,19.10
2018-12-29T21:07:41.574Z,11.83
2018-12-29T21:10:11.657Z,17.07
2018-12-29T21:12:45.086Z,16.90
2018-12-29T21:15:15.290Z,16.80
2018-12-29T21:17:44.975Z,18.00
2018-12-29T21:20:17.519Z,14.77
2018-12-29T21:22:46.684Z,16.20
2018-12-29T21:25:16.594Z,10.90
2018-12-29T21:27:46.764Z,11.87
2018-12-29T21:30:16.585Z,12.07
2018-12-29T21:32:46.850Z,11.03
2018-12-29T21:35:16.594Z,11.63
2018-12-29T21:37:46.527Z,13.13
2018-12-29T21:40:16.493Z,10.93
2018-12-29T21:42:46.389Z,10.97
2018-12-29T21:45:16.535Z,11.17
2018-12-29T21:47:46.133Z,10.10
2018-12-29T21:50:15.705Z,9.67
2018-12-29T21:52:45.962Z,10.90
2018-12-29T21:55:16.724Z,10.50
2018-12-29T21:57:47.260Z,10.63
2018-12-29T22:00:17.260Z,10.17
2018-12-29T22:02:47.125Z,10.17
2018-12-29T22:05:16.961Z,9.87
2018-12-29T22:07:47.185Z,7.97
2018-12-29T22:10:17.100Z,9.40
2018-12-29T22:12:47.425Z,8.30
2018-12-29T22:15:17.300Z,8.80
2018-12-29T22:17:47.116Z,9.00
2018-12-29T22:20:16.676Z,10.10
2018-12-29T22:22:47.105Z,8.10
2018-12-29T22:25:16.943Z,8.30
2018-12-29T22:27:46.807Z,8.07
2018-12-29T22:30:17.100Z,5.93
2018-12-29T22:32:46.689Z,7.60
2018-12-29T22:35:16.521Z,8.43
2018-12-29T22:37:46.673Z,9.50
2018-12-29T22:40:16.780Z,8.30
2018-12-29T22:42:47.013Z,7.43
2018-12-29T22:45:17.129Z,8.00
2018-12-29T22:47:47.457Z,8.23
2018-12-29T22:50:17.581Z,6.97
2018-12-29T22:52:47.775Z,6.57
2018-12-29T22:55:17.698Z,7.47
2018-12-29T22:57:47.940Z,6.47
2018-12-29T23:00:36.189Z,7.07
2018-12-29T23:03:05.777Z,7.27
2018-12-29T23:05:35.676Z,6.63
2018-12-29T23:08:05.714Z,6.40
2018-12-29T23:10:35.738Z,6.03
2018-12-29T23:13:06.269Z,6.00
2018-12-29T23:15:36.293Z,7.30
2018-12-29T23:18:06.193Z,6.83
2018-12-29T23:20:36.141Z,6.23
2018-12-29T23:23:05.980Z,6.67
2018-12-29T23:25:35.609Z,6.47
2018-12-29T23:28:05.797Z,6.67
2018-12-29T23:30:35.662Z,6.93
2018-12-29T23:33:07.633Z,5.97
2018-12-29T23:35:37.264Z,6.27
2018-12-29T23:38:07.260Z,5.97
2018-12-29T23:40:37.164Z,6.23
2018-12-29T23:43:06.873Z,6.40
2018-12-29T23:45:36.877Z,6.47
2018-12-29T23:48:07.105Z,6.57
2018-12-29T23:50:36.897Z,6.93
2018-12-29T23:53:06.794Z,7.03
2018-12-29T23:55:37.369Z,7.23
2018-12-29T23:58:07.625Z,6.83
